Terminal Aerodrome Forecast
Issued by NWS

Home | Current Version | Previous Version | Text Only | Print | Product List | Glossary On
Versions: 1 2 3 4 5 6 7 8 9 10 11 12 13 14 15 16
000
FTUS42 TJSJ 191130
TAFJPS
TAF
TJPS 191130Z 1912/2012 VRB03KT P6SM FEW025
     FM191400 15010KT P6SM FEW030
     FM191800 15012G18KT P6SM FEW030
      AMD NOT SKED TIL 200300=

USA.gov is the U.S. government's official web portal to all federal, state and local government web resources and services.